FOOL

Libreville Leon M'ba International Airport

Libreville, Gabon
METAR FOOL 240730Z 13007KT 9999 FEW011 OVC030 27/24 Q1014 NOSIG
Observed Flight Rules
May-24 @ 07:30 UTC (37 minutes ago) Marginal Visual Flight Rules
Wind Visibility Clouds
130° at 7 knots 10,000+ meters
  • Few at 1,100' AGL
  • Overcast at 3,000' AGL
Temperatures Readings
Current 27°C / 81°F
Dewpoint 24°C / 75°F
Humidity 84%
Altimeter 29.94" Hg
Pressure 1014 hPa
Elevation 15
METAR FOOL 240730Z 13007KT 9999 FEW011 OVC030 27/24 Q1014 NOSIG
Observed Flight Rules
May-24 @ 07:30 UTC
(37 minutes ago)
MVFR
Wind Visibility
130° at 7 knots 10,000+ meters
Clouds
  • Few at 1,100' AGL
  • Overcast at 3,000' AGL
Temperature Dewpoint
27°C / 81°F 24°C / 75°F
Humidity Altimeter Pressure
84% 29.94" Hg 1014 hPa